createdAt,value
2023-03-20T00:00:08.320Z,26.55
2023-03-20T00:02:35.984Z,21.35
2023-03-20T00:05:03.380Z,27.05
2023-03-20T00:07:32.190Z,26.15
2023-03-20T00:09:59.510Z,26.20
2023-03-20T00:12:27.234Z,26.35
2023-03-20T00:14:54.708Z,25.10
2023-03-20T00:17:22.052Z,26.52
2023-03-20T00:19:49.725Z,27.38
2023-03-20T00:22:17.233Z,25.70
2023-03-20T00:24:46.162Z,26.95
2023-03-20T00:27:14.499Z,27.42
2023-03-20T00:29:42.433Z,25.98
2023-03-20T00:32:12.880Z,27.08
2023-03-20T00:34:40.236Z,28.02
2023-03-20T00:37:07.586Z,25.33
2023-03-20T00:39:34.920Z,25.42
2023-03-20T00:42:05.885Z,25.98
2023-03-20T00:44:34.734Z,26.08
2023-03-20T00:47:03.658Z,25.80
2023-03-20T00:49:33.344Z,25.75
2023-03-20T00:52:01.177Z,26.70
2023-03-20T00:54:28.950Z,27.55
2023-03-20T00:56:58.395Z,27.48
2023-03-20T00:59:28.416Z,25.23
2023-03-20T01:01:56.330Z,25.73
2023-03-20T01:04:23.786Z,23.75
2023-03-20T01:06:51.116Z,25.15
2023-03-20T01:09:18.456Z,26.50
2023-03-20T01:11:46.353Z,26.83
2023-03-20T01:14:15.512Z,25.15
2023-03-20T01:16:44.382Z,26.38
2023-03-20T01:19:12.787Z,24.40
2023-03-20T01:21:40.091Z,24.67
2023-03-20T01:24:07.595Z,23.90
2023-03-20T01:26:36.482Z,22.63
2023-03-20T01:29:03.839Z,25.50
2023-03-20T01:31:31.684Z,25.85
2023-03-20T01:34:00.470Z,22.55
2023-03-20T01:36:28.445Z,24.48
2023-03-20T01:38:56.720Z,24.02
2023-03-20T01:41:25.196Z,23.20
2023-03-20T01:43:53.032Z,23.15
2023-03-20T01:46:23.541Z,23.20
2023-03-20T01:48:58.921Z,22.67
2023-03-20T01:51:28.112Z,22.85
2023-03-20T01:53:57.220Z,22.25
2023-03-20T01:56:24.718Z,24.48
2023-03-20T01:58:54.667Z,23.45
2023-03-20T02:01:22.408Z,21.77
2023-03-20T02:03:51.781Z,22.40
2023-03-20T02:06:19.320Z,22.60
2023-03-20T02:08:49.139Z,22.13
2023-03-20T02:11:16.825Z,22.65
2023-03-20T02:13:45.132Z,23.42
2023-03-20T02:16:13.578Z,25.30
2023-03-20T02:18:42.520Z,23.02
2023-03-20T02:21:27.492Z,22.70
2023-03-20T02:24:14.760Z,24.02
2023-03-20T02:26:53.341Z,24.30
2023-03-20T02:29:38.609Z,23.98
2023-03-20T02:32:26.995Z,26.40
2023-03-20T02:35:05.978Z,26.45
2023-03-20T02:37:48.181Z,26.23
2023-03-20T02:40:22.383Z,27.98
2023-03-20T02:42:54.462Z,28.90
2023-03-20T02:45:24.422Z,27.38
2023-03-20T02:47:54.229Z,29.20
2023-03-20T02:50:28.184Z,29.15
2023-03-20T02:53:00.305Z,29.30
2023-03-20T02:55:34.528Z,29.60
2023-03-20T02:58:06.935Z,26.25
2023-03-20T03:00:36.558Z,27.95
2023-03-20T03:03:07.196Z,26.55
2023-03-20T03:05:37.897Z,25.48
2023-03-20T03:08:05.885Z,25.83
2023-03-20T03:10:36.809Z,27.10
2023-03-20T03:13:06.036Z,24.92
2023-03-20T03:15:35.418Z,25.17
2023-03-20T03:18:04.970Z,25.85
2023-03-20T03:20:33.893Z,26.80
2023-03-20T03:23:01.840Z,26.98
2023-03-20T03:25:31.334Z,27.27
2023-03-20T03:28:03.763Z,26.27
2023-03-20T03:30:32.924Z,26.13
2023-03-20T03:33:08.216Z,26.08
2023-03-20T03:35:36.078Z,26.98
2023-03-20T03:38:08.213Z,25.50
2023-03-20T03:40:38.205Z,25.48
2023-03-20T03:43:08.547Z,26.05
2023-03-20T03:45:38.648Z,25.63
2023-03-20T03:48:08.508Z,25.55
2023-03-20T03:50:37.932Z,23.38
2023-03-20T03:53:08.917Z,22.58
2023-03-20T03:55:38.663Z,21.58
2023-03-20T03:58:09.485Z,17.60
2023-03-20T04:00:36.938Z,16.38
2023-03-20T04:03:06.636Z,14.85
2023-03-20T04:05:35.603Z,13.80
2023-03-20T04:08:04.215Z,13.88
2023-03-20T04:10:31.560Z,13.63
2023-03-20T04:12:58.965Z,14.15
2023-03-20T04:15:28.236Z,14.32
2023-03-20T04:17:55.617Z,14.50
2023-03-20T04:20:23.313Z,14.32
2023-03-20T04:22:50.642Z,15.93
2023-03-20T04:25:19.223Z,15.07
2023-03-20T04:27:46.676Z,15.27
2023-03-20T04:30:14.170Z,14.32
2023-03-20T04:32:42.866Z,15.15
2023-03-20T04:35:10.390Z,15.38
2023-03-20T04:37:37.692Z,16.42
2023-03-20T04:40:05.393Z,15.63
2023-03-20T04:42:32.719Z,17.25
2023-03-20T04:45:00.253Z,16.38
2023-03-20T04:47:27.550Z,16.35
2023-03-20T04:49:56.217Z,16.20
2023-03-20T04:52:23.552Z,18.45
2023-03-20T04:54:51.035Z,17.17
2023-03-20T04:57:18.403Z,17.90
2023-03-20T04:59:45.796Z,16.23
2023-03-20T05:02:14.978Z,16.23
2023-03-20T05:04:42.573Z,16.90
2023-03-20T05:07:11.293Z,16.40
2023-03-20T05:09:38.592Z,16.02
2023-03-20T05:12:06.336Z,15.88
2023-03-20T05:14:33.723Z,16.42
2023-03-20T05:17:01.231Z,16.02
2023-03-20T05:19:28.550Z,15.77
2023-03-20T05:21:58.302Z,15.55
2023-03-20T05:24:28.930Z,15.10
2023-03-20T05:26:56.373Z,16.17
2023-03-20T05:29:23.726Z,15.95
2023-03-20T05:31:51.023Z,14.73
2023-03-20T05:34:18.300Z,16.05
2023-03-20T05:36:45.891Z,14.77
2023-03-20T05:39:13.215Z,15.48
2023-03-20T05:41:43.483Z,15.55
2023-03-20T05:44:12.640Z,14.98
2023-03-20T05:46:40.065Z,15.25
2023-03-20T05:49:07.381Z,16.38
2023-03-20T05:51:34.748Z,15.80
2023-03-20T05:54:02.061Z,16.08
2023-03-20T05:56:29.416Z,15.35
2023-03-20T05:58:58.146Z,16.55
2023-03-20T06:01:25.548Z,15.50
2023-03-20T06:03:52.903Z,15.40
2023-03-20T06:06:20.311Z,16.52
2023-03-20T06:08:47.622Z,16.25
2023-03-20T06:11:15.862Z,16.45
2023-03-20T06:13:43.387Z,17.25
2023-03-20T06:16:12.128Z,17.50
2023-03-20T06:18:39.988Z,16.40
2023-03-20T06:21:10.204Z,18.92
2023-03-20T06:23:37.497Z,18.45
2023-03-20T06:26:05.080Z,17.45
2023-03-20T06:28:32.480Z,18.85
2023-03-20T06:30:59.816Z,17.55
2023-03-20T06:33:28.792Z,17.95
2023-03-20T06:35:56.138Z,18.30
2023-03-20T06:38:23.467Z,19.55
2023-03-20T06:40:50.805Z,19.63
2023-03-20T06:43:18.524Z,20.48
2023-03-20T06:45:46.052Z,20.75
2023-03-20T06:48:13.420Z,20.15
2023-03-20T06:50:42.062Z,19.10
2023-03-20T06:53:09.346Z,19.60
2023-03-20T06:55:37.788Z,19.92
2023-03-20T06:58:05.324Z,18.40
2023-03-20T07:00:32.977Z,17.75
2023-03-20T07:03:02.230Z,18.08
2023-03-20T07:05:29.689Z,16.17
2023-03-20T07:07:58.350Z,17.88
2023-03-20T07:10:25.636Z,17.30
2023-03-20T07:12:52.943Z,15.88
2023-03-20T07:15:21.027Z,15.48
2023-03-20T07:17:48.369Z,15.15
2023-03-20T07:20:15.732Z,15.45
2023-03-20T07:22:43.047Z,15.73
2023-03-20T07:25:12.241Z,15.73
2023-03-20T07:27:39.580Z,15.60
2023-03-20T07:30:08.705Z,13.63
2023-03-20T07:32:37.833Z,11.73
2023-03-20T07:35:05.678Z,11.35
2023-03-20T07:37:33.472Z,12.57
2023-03-20T07:40:00.749Z,12.35
2023-03-20T07:42:29.388Z,11.73
2023-03-20T07:44:56.679Z,11.05
2023-03-20T07:47:24.007Z,11.43
2023-03-20T07:49:51.429Z,11.40
2023-03-20T07:52:18.741Z,8.63
2023-03-20T07:54:46.081Z,9.60
2023-03-20T07:57:13.391Z,10.25
2023-03-20T07:59:42.063Z,8.38
2023-03-20T08:02:11.996Z,8.93
2023-03-20T08:04:39.400Z,8.52
2023-03-20T08:07:06.834Z,8.88
2023-03-20T08:09:34.334Z,8.00
2023-03-20T08:12:01.714Z,8.18
2023-03-20T08:14:29.048Z,8.60
2023-03-20T08:17:13.292Z,7.93
2023-03-20T08:22:08.726Z,7.55
2023-03-20T08:24:36.496Z,8.32
2023-03-20T08:27:03.879Z,8.00
2023-03-20T08:29:31.208Z,8.02
2023-03-20T08:31:59.859Z,8.93
2023-03-20T08:34:27.281Z,7.65
2023-03-20T08:36:54.683Z,8.30
2023-03-20T08:39:22.022Z,8.02
2023-03-20T08:41:49.635Z,7.82
2023-03-20T08:44:17.146Z,8.93
2023-03-20T08:46:46.288Z,8.27
2023-03-20T08:49:14.994Z,8.40
2023-03-20T08:51:43.373Z,8.98
2023-03-20T08:54:10.900Z,8.63
2023-03-20T08:56:38.266Z,8.48
2023-03-20T08:59:05.879Z,8.25
2023-03-20T09:01:48.222Z,9.15
2023-03-20T09:04:17.909Z,9.68
2023-03-20T09:06:45.274Z,8.93
2023-03-20T09:09:15.584Z,10.00
2023-03-20T09:11:42.854Z,10.35
2023-03-20T09:14:10.177Z,10.10
2023-03-20T09:16:37.701Z,7.75
2023-03-20T09:19:05.215Z,9.70
2023-03-20T09:21:33.862Z,12.38
2023-03-20T09:24:01.147Z,10.18
2023-03-20T09:26:28.461Z,10.25
2023-03-20T09:28:55.761Z,10.70
2023-03-20T09:31:23.970Z,10.30
2023-03-20T09:33:51.258Z,10.35
2023-03-20T09:36:18.669Z,12.07
2023-03-20T09:38:47.452Z,11.20
2023-03-20T09:41:17.685Z,10.70
2023-03-20T09:43:49.663Z,11.68
2023-03-20T09:46:25.277Z,11.30
2023-03-20T09:48:57.578Z,9.18
2023-03-20T09:51:29.112Z,10.98
2023-03-20T09:54:01.249Z,11.50
2023-03-20T09:56:30.215Z,11.13
2023-03-20T09:58:59.218Z,10.55
2023-03-20T10:01:28.154Z,9.40
2023-03-20T10:03:57.575Z,8.32
2023-03-20T10:06:25.439Z,7.10
2023-03-20T10:08:52.972Z,6.88
2023-03-20T10:11:31.658Z,8.00
2023-03-20T10:14:04.469Z,5.32
2023-03-20T10:16:42.716Z,6.18
2023-03-20T10:19:16.979Z,5.32
2023-03-20T10:21:45.675Z,5.53
2023-03-20T10:24:19.376Z,5.63
2023-03-20T10:26:51.549Z,4.95
2023-03-20T10:29:25.395Z,5.43
2023-03-20T10:31:58.005Z,5.00
2023-03-20T10:34:32.031Z,4.97
2023-03-20T10:37:10.857Z,4.80
2023-03-20T10:39:50.179Z,4.50
2023-03-20T10:42:20.404Z,4.00
2023-03-20T10:44:51.389Z,4.15
2023-03-20T10:47:21.637Z,3.08
2023-03-20T10:49:51.845Z,3.70
2023-03-20T10:52:20.844Z,3.55
2023-03-20T10:54:49.957Z,3.08
2023-03-20T10:57:21.235Z,3.13
2023-03-20T10:59:50.149Z,3.17
2023-03-20T11:02:18.207Z,3.47
2023-03-20T11:04:45.838Z,3.60
2023-03-20T11:07:19.092Z,4.03
2023-03-20T11:09:46.350Z,3.58
2023-03-20T11:12:16.380Z,3.47
2023-03-20T11:14:45.049Z,3.35
2023-03-20T11:17:12.810Z,3.80
2023-03-20T11:19:41.028Z,3.78
2023-03-20T11:22:09.453Z,3.63
2023-03-20T11:24:37.758Z,4.05
2023-03-20T11:27:06.294Z,3.50
2023-03-20T11:29:35.139Z,3.53
2023-03-20T11:32:08.687Z,3.50
2023-03-20T11:34:38.420Z,3.55
2023-03-20T11:37:10.626Z,2.95
2023-03-20T11:39:39.921Z,2.78
2023-03-20T11:42:22.350Z,3.38
2023-03-20T11:44:57.505Z,3.17
2023-03-20T11:47:27.344Z,3.58
2023-03-20T11:49:55.919Z,3.53
2023-03-20T11:52:25.090Z,2.90
2023-03-20T11:54:53.533Z,2.97
2023-03-20T11:57:30.981Z,2.70
2023-03-20T11:59:58.593Z,3.47
2023-03-20T12:02:27.629Z,3.45
2023-03-20T12:04:55.037Z,3.65
2023-03-20T12:07:26.594Z,3.15
2023-03-20T12:09:56.002Z,4.32
2023-03-20T12:12:32.485Z,4.15
2023-03-20T12:15:04.334Z,4.10
2023-03-20T12:17:36.181Z,3.75
2023-03-20T12:20:05.306Z,3.55
2023-03-20T12:22:34.269Z,2.85
2023-03-20T12:25:03.608Z,3.50
2023-03-20T12:27:34.860Z,3.15
2023-03-20T12:30:08.248Z,2.97
2023-03-20T12:32:39.432Z,2.90
2023-03-20T12:35:12.050Z,2.90
2023-03-20T12:37:39.452Z,3.20
2023-03-20T12:40:07.685Z,2.90
2023-03-20T12:42:39.963Z,2.65
2023-03-20T12:45:11.487Z,2.70
2023-03-20T12:47:47.765Z,3.25
2023-03-20T12:50:18.900Z,3.05
2023-03-20T12:52:50.583Z,3.05
2023-03-20T12:55:30.527Z,3.03
2023-03-20T12:58:04.266Z,2.83
2023-03-20T13:00:34.161Z,2.97
2023-03-20T13:03:16.695Z,2.88
2023-03-20T13:05:46.758Z,2.90
2023-03-20T13:08:30.246Z,2.58
2023-03-20T13:11:03.783Z,2.45
2023-03-20T13:13:34.405Z,2.50
2023-03-20T13:16:06.369Z,2.20
2023-03-20T13:18:41.799Z,2.70
2023-03-20T13:21:11.571Z,2.38
2023-03-20T13:23:44.321Z,2.35
2023-03-20T13:26:18.273Z,2.33
2023-03-20T13:28:50.045Z,2.80
2023-03-20T13:31:21.903Z,2.40
2023-03-20T13:33:53.831Z,1.98
2023-03-20T13:36:26.278Z,1.67
2023-03-20T13:38:55.265Z,2.22
2023-03-20T13:41:23.344Z,2.28
2023-03-20T13:43:54.229Z,2.65
2023-03-20T13:46:23.937Z,2.53
2023-03-20T13:48:54.109Z,2.80
2023-03-20T13:51:25.019Z,2.63
2023-03-20T13:53:55.907Z,2.45
2023-03-20T13:56:27.768Z,3.13
2023-03-20T13:59:16.871Z,2.45
2023-03-20T14:01:50.766Z,3.20
2023-03-20T14:04:21.414Z,3.22
2023-03-20T14:06:50.821Z,2.85
2023-03-20T14:09:29.528Z,2.85
2023-03-20T14:11:57.694Z,3.00
2023-03-20T14:14:27.435Z,2.65
2023-03-20T14:17:04.762Z,3.53
2023-03-20T14:19:35.089Z,3.00
2023-03-20T14:22:02.507Z,2.65
2023-03-20T14:24:30.242Z,2.78
2023-03-20T14:26:58.136Z,3.28
2023-03-20T14:29:36.172Z,2.78
2023-03-20T14:32:04.926Z,2.63
2023-03-20T14:34:45.893Z,3.20
2023-03-20T14:37:27.959Z,2.75
2023-03-20T14:39:59.641Z,2.65
2023-03-20T14:42:30.989Z,2.97
2023-03-20T14:45:16.479Z,2.75
2023-03-20T14:47:47.926Z,3.28
2023-03-20T14:50:23.289Z,3.10
2023-03-20T14:52:58.244Z,3.30
2023-03-20T14:55:33.526Z,2.95
2023-03-20T14:58:05.290Z,3.20
2023-03-20T15:00:35.998Z,2.80
2023-03-20T15:03:09.893Z,2.85
2023-03-20T15:05:40.211Z,3.70
2023-03-20T15:08:12.633Z,3.03
2023-03-20T15:10:46.617Z,2.97
2023-03-20T15:13:14.950Z,2.77
2023-03-20T15:15:53.492Z,4.05
2023-03-20T15:18:29.408Z,3.00
2023-03-20T15:21:11.858Z,2.72
2023-03-20T15:23:42.811Z,2.88
2023-03-20T15:26:10.777Z,2.63
2023-03-20T15:28:43.387Z,2.70
2023-03-20T15:31:20.807Z,2.58
2023-03-20T15:33:49.058Z,3.08
2023-03-20T15:36:18.796Z,2.47
2023-03-20T15:38:49.337Z,2.22
2023-03-20T15:41:28.238Z,2.80
2023-03-20T15:44:05.438Z,2.22
2023-03-20T15:46:33.421Z,2.70
2023-03-20T15:49:02.034Z,2.60
2023-03-20T15:51:36.531Z,2.58
2023-03-20T15:54:08.615Z,3.08
2023-03-20T15:56:43.968Z,2.55
2023-03-20T15:59:14.686Z,2.58
2023-03-20T16:01:42.915Z,2.80
2023-03-20T16:04:12.043Z,3.25
2023-03-20T16:06:46.167Z,2.88
2023-03-20T16:09:14.730Z,2.42
2023-03-20T16:11:43.403Z,2.85
2023-03-20T16:14:13.072Z,3.30
2023-03-20T16:16:40.531Z,3.83
2023-03-20T16:19:08.723Z,2.80
2023-03-20T16:21:37.655Z,3.33
2023-03-20T16:24:09.039Z,3.17
2023-03-20T16:26:38.461Z,3.13
2023-03-20T16:29:06.009Z,3.08
2023-03-20T16:31:34.474Z,3.10
2023-03-20T16:34:02.624Z,3.33
2023-03-20T16:36:31.154Z,2.55
2023-03-20T16:39:01.149Z,3.10
2023-03-20T16:41:31.854Z,3.50
2023-03-20T16:43:59.134Z,3.08
2023-03-20T16:46:28.029Z,3.40
2023-03-20T16:48:57.352Z,2.85
2023-03-20T16:51:25.805Z,2.83
2023-03-20T16:53:55.732Z,3.08
2023-03-20T16:56:25.764Z,3.00
2023-03-20T16:58:56.766Z,2.78
2023-03-20T17:01:28.897Z,2.83
2023-03-20T17:03:57.210Z,2.60
2023-03-20T17:06:45.568Z,2.83
2023-03-20T17:09:21.249Z,2.88
2023-03-20T17:11:50.049Z,2.72
2023-03-20T17:14:18.872Z,2.65
2023-03-20T17:16:46.368Z,3.40
2023-03-20T17:19:15.541Z,3.10
2023-03-20T17:21:43.105Z,2.53
2023-03-20T17:24:10.760Z,2.90
2023-03-20T17:26:38.613Z,2.30
2023-03-20T17:29:06.137Z,2.65
2023-03-20T17:31:34.849Z,2.55
2023-03-20T17:34:02.279Z,2.38
2023-03-20T17:36:31.435Z,3.00
2023-03-20T17:38:59.116Z,2.35
2023-03-20T17:41:27.059Z,2.35
2023-03-20T17:43:56.095Z,2.88
2023-03-20T17:46:25.491Z,3.10
2023-03-20T17:48:57.570Z,3.00
2023-03-20T17:51:24.863Z,2.92
2023-03-20T17:53:55.072Z,2.30
2023-03-20T17:56:22.955Z,2.90
2023-03-20T17:58:50.445Z,2.42
2023-03-20T18:01:18.304Z,2.20
2023-03-20T18:03:45.832Z,2.20
2023-03-20T18:06:17.050Z,2.58
2023-03-20T18:08:44.366Z,2.75
2023-03-20T18:11:11.672Z,2.50
2023-03-20T18:13:39.160Z,3.20
2023-03-20T18:16:06.725Z,3.30
2023-03-20T18:18:34.362Z,2.78
2023-03-20T18:21:01.750Z,2.67
2023-03-20T18:23:30.484Z,2.40
2023-03-20T18:25:57.839Z,2.88
2023-03-20T18:28:25.248Z,3.00
2023-03-20T18:30:52.587Z,2.38
2023-03-20T18:33:25.021Z,2.60
2023-03-20T18:35:52.368Z,2.65
2023-03-20T18:38:19.728Z,2.38
2023-03-20T18:40:48.404Z,2.58
2023-03-20T18:43:15.733Z,2.67
2023-03-20T18:45:43.109Z,2.20
2023-03-20T18:48:12.318Z,2.42
2023-03-20T18:50:41.511Z,2.80
2023-03-20T18:53:09.791Z,2.53
2023-03-20T18:55:37.951Z,2.35
2023-03-20T18:58:06.685Z,3.00
2023-03-20T19:00:37.709Z,2.33
2023-03-20T19:03:05.401Z,2.97
2023-03-20T19:05:32.917Z,1.83
2023-03-20T19:08:01.025Z,2.25
2023-03-20T19:10:30.233Z,2.10
2023-03-20T19:12:57.994Z,2.90
2023-03-20T19:15:27.462Z,2.65
2023-03-20T19:17:55.024Z,2.20
2023-03-20T19:20:33.764Z,2.67
2023-03-20T19:23:02.119Z,1.95
2023-03-20T19:25:30.099Z,2.30
2023-03-20T19:27:57.631Z,2.70
2023-03-20T19:30:28.266Z,2.65
2023-03-20T19:32:56.111Z,2.83
2023-03-20T19:38:13.855Z,3.10
2023-03-20T19:40:43.328Z,3.05
2023-03-20T19:43:11.263Z,3.15
2023-03-20T19:45:40.916Z,2.75
2023-03-20T19:48:13.332Z,2.20
2023-03-20T19:50:41.730Z,3.17
2023-03-20T19:53:12.320Z,2.40
2023-03-20T19:55:40.392Z,2.40
2023-03-20T19:58:08.048Z,3.10
2023-03-20T20:03:26.009Z,2.78
2023-03-20T20:05:53.820Z,2.70
2023-03-20T20:08:41.416Z,2.67
2023-03-20T20:11:09.705Z,2.55
2023-03-20T20:13:47.127Z,2.58
2023-03-20T20:16:24.419Z,3.00
2023-03-20T20:18:53.157Z,2.83
2023-03-20T20:22:10.131Z,3.70
2023-03-20T20:24:07.947Z,2.70
2023-03-20T20:26:40.572Z,3.33
2023-03-20T20:29:15.128Z,3.08
2023-03-20T20:31:42.486Z,3.33
2023-03-20T20:37:56.539Z,3.45
2023-03-20T20:39:46.101Z,3.38
2023-03-20T20:42:13.715Z,3.45
2023-03-20T20:44:41.201Z,3.20
2023-03-20T20:47:08.852Z,3.35
2023-03-20T20:49:37.537Z,3.10
2023-03-20T20:52:05.140Z,2.78
2023-03-20T20:54:33.971Z,3.22
2023-03-20T20:57:01.407Z,3.35
2023-03-20T20:59:28.921Z,3.22
2023-03-20T21:01:56.404Z,3.05
2023-03-20T21:04:23.901Z,2.78
2023-03-20T21:07:10.644Z,3.42
2023-03-20T21:09:38.598Z,3.45
2023-03-20T21:12:06.396Z,3.28
2023-03-20T21:14:33.866Z,3.72
2023-03-20T21:17:01.636Z,3.55
2023-03-20T21:19:29.502Z,3.78
2023-03-20T21:21:58.157Z,3.42
2023-03-20T21:24:34.546Z,3.67
2023-03-20T21:27:02.454Z,3.60
2023-03-20T21:29:29.752Z,3.70
2023-03-20T21:31:57.085Z,3.88
2023-03-20T21:34:24.410Z,4.07
2023-03-20T21:36:52.270Z,3.20
2023-03-20T21:39:21.046Z,3.75
2023-03-20T21:41:48.367Z,3.42
2023-03-20T21:44:18.335Z,3.60
2023-03-20T21:47:44.494Z,4.18
2023-03-20T21:58:44.374Z,5.63
2023-03-20T22:01:45.046Z,5.53
2023-03-20T22:12:47.975Z,4.38
2023-03-20T22:18:05.692Z,4.40
2023-03-20T22:21:13.407Z,4.20
2023-03-20T22:24:01.621Z,4.22
2023-03-20T22:34:58.513Z,4.03
2023-03-20T22:40:50.387Z,4.75
2023-03-20T22:43:01.570Z,4.30
2023-03-20T22:45:38.433Z,4.40
2023-03-20T22:48:12.339Z,4.78
2023-03-20T22:50:40.156Z,4.43
2023-03-20T22:53:07.485Z,4.78
2023-03-20T22:55:34.772Z,4.78
2023-03-20T22:58:08.070Z,5.15
2023-03-20T23:00:37.606Z,5.10
2023-03-20T23:03:37.694Z,5.10
2023-03-20T23:05:54.055Z,4.63
2023-03-20T23:08:21.892Z,5.00
2023-03-20T23:10:50.007Z,4.72
2023-03-20T23:13:18.055Z,5.00
2023-03-20T23:15:47.506Z,5.70
2023-03-20T23:18:14.973Z,5.72
2023-03-20T23:20:42.305Z,5.38
2023-03-20T23:23:09.659Z,5.05
2023-03-20T23:25:39.851Z,5.32
2023-03-20T23:28:07.871Z,5.10
2023-03-20T23:30:44.925Z,4.55
2023-03-20T23:33:16.878Z,5.35
2023-03-20T23:35:44.209Z,5.95
2023-03-20T23:38:11.555Z,5.28
2023-03-20T23:40:39.140Z,5.30
2023-03-20T23:43:06.632Z,5.25
2023-03-20T23:45:33.939Z,5.68
2023-03-20T23:48:01.282Z,5.07
2023-03-20T23:50:42.602Z,5.38
2023-03-20T23:53:20.320Z,4.63
2023-03-20T23:58:16.106Z,5.32
